sensor_id;sensor_type;location;lat;lon;timestamp;P1;durP1;ratioP1;P2;durP2;ratioP2
4837;SDS011;2433;48.768;9.154;2022-08-25T00:01:14;1.90;;;1.80;;
4837;SDS011;2433;48.768;9.154;2022-08-25T00:03:41;2.00;;;1.70;;
4837;SDS011;2433;48.768;9.154;2022-08-25T00:06:08;3.00;;;2.30;;
4837;SDS011;2433;48.768;9.154;2022-08-25T00:08:34;3.57;;;1.90;;
4837;SDS011;2433;48.768;9.154;2022-08-25T00:11:09;2.60;;;2.40;;
4837;SDS011;2433;48.768;9.154;2022-08-25T00:13:38;2.37;;;2.17;;
4837;SDS011;2433;48.768;9.154;2022-08-25T00:16:07;2.40;;;2.20;;
4837;SDS011;2433;48.768;9.154;2022-08-25T00:18:32;2.93;;;2.07;;
4837;SDS011;2433;48.768;9.154;2022-08-25T00:20:58;2.53;;;1.97;;
4837;SDS011;2433;48.768;9.154;2022-08-25T00:23:24;3.27;;;1.90;;
4837;SDS011;2433;48.768;9.154;2022-08-25T00:25:49;2.37;;;2.17;;
4837;SDS011;2433;48.768;9.154;2022-08-25T00:28:15;2.50;;;2.17;;
4837;SDS011;2433;48.768;9.154;2022-08-25T00:30:41;2.27;;;2.07;;
4837;SDS011;2433;48.768;9.154;2022-08-25T00:33:07;2.53;;;2.23;;
4837;SDS011;2433;48.768;9.154;2022-08-25T00:35:33;2.87;;;1.83;;
4837;SDS011;2433;48.768;9.154;2022-08-25T00:37:59;2.50;;;1.93;;
4837;SDS011;2433;48.768;9.154;2022-08-25T00:40:25;2.10;;;1.90;;
4837;SDS011;2433;48.768;9.154;2022-08-25T00:42:51;1.63;;;1.53;;
4837;SDS011;2433;48.768;9.154;2022-08-25T00:45:16;2.57;;;2.00;;
4837;SDS011;2433;48.768;9.154;2022-08-25T00:47:42;2.50;;;2.30;;
4837;SDS011;2433;48.768;9.154;2022-08-25T00:50:08;2.00;;;1.80;;
4837;SDS011;2433;48.768;9.154;2022-08-25T00:52:39;1.97;;;1.80;;
4837;SDS011;2433;48.768;9.154;2022-08-25T00:55:14;2.40;;;2.10;;
4837;SDS011;2433;48.768;9.154;2022-08-25T00:57:43;1.83;;;1.60;;
4837;SDS011;2433;48.768;9.154;2022-08-25T01:00:27;2.37;;;1.90;;
4837;SDS011;2433;48.768;9.154;2022-08-25T01:02:56;2.60;;;2.20;;
4837;SDS011;2433;48.768;9.154;2022-08-25T01:05:22;2.57;;;2.27;;
4837;SDS011;2433;48.768;9.154;2022-08-25T01:07:48;2.03;;;1.83;;
4837;SDS011;2433;48.768;9.154;2022-08-25T01:10:16;3.00;;;2.03;;
4837;SDS011;2433;48.768;9.154;2022-08-25T01:12:42;2.70;;;2.50;;
4837;SDS011;2433;48.768;9.154;2022-08-25T01:15:09;2.23;;;2.03;;
4837;SDS011;2433;48.768;9.154;2022-08-25T01:17:54;2.57;;;2.23;;
4837;SDS011;2433;48.768;9.154;2022-08-25T01:20:22;3.20;;;2.60;;
4837;SDS011;2433;48.768;9.154;2022-08-25T01:22:51;2.70;;;2.50;;
4837;SDS011;2433;48.768;9.154;2022-08-25T01:28:01;2.03;;;1.87;;
4837;SDS011;2433;48.768;9.154;2022-08-25T01:30:27;3.17;;;2.87;;
4837;SDS011;2433;48.768;9.154;2022-08-25T01:32:53;3.40;;;2.20;;
4837;SDS011;2433;48.768;9.154;2022-08-25T01:35:19;3.40;;;2.70;;
4837;SDS011;2433;48.768;9.154;2022-08-25T01:37:44;3.30;;;2.57;;
4837;SDS011;2433;48.768;9.154;2022-08-25T01:40:10;2.23;;;2.03;;
4837;SDS011;2433;48.768;9.154;2022-08-25T01:42:41;5.40;;;2.30;;
4837;SDS011;2433;48.768;9.154;2022-08-25T01:45:24;3.40;;;2.90;;
4837;SDS011;2433;48.768;9.154;2022-08-25T01:47:50;2.83;;;2.30;;
4837;SDS011;2433;48.768;9.154;2022-08-25T01:50:16;3.10;;;2.60;;
4837;SDS011;2433;48.768;9.154;2022-08-25T01:55:14;3.63;;;2.60;;
4837;SDS011;2433;48.768;9.154;2022-08-25T01:57:40;3.90;;;2.93;;
4837;SDS011;2433;48.768;9.154;2022-08-25T02:00:06;4.00;;;2.47;;
4837;SDS011;2433;48.768;9.154;2022-08-25T02:02:36;4.00;;;2.63;;
4837;SDS011;2433;48.768;9.154;2022-08-25T02:05:02;3.13;;;2.30;;
4837;SDS011;2433;48.768;9.154;2022-08-25T02:07:28;3.90;;;2.60;;
4837;SDS011;2433;48.768;9.154;2022-08-25T02:09:54;4.10;;;3.03;;
4837;SDS011;2433;48.768;9.154;2022-08-25T02:12:19;3.13;;;2.80;;
4837;SDS011;2433;48.768;9.154;2022-08-25T02:14:45;2.47;;;2.27;;
4837;SDS011;2433;48.768;9.154;2022-08-25T02:17:10;2.30;;;1.90;;
4837;SDS011;2433;48.768;9.154;2022-08-25T02:19:36;2.63;;;2.40;;
4837;SDS011;2433;48.768;9.154;2022-08-25T02:22:02;2.77;;;2.57;;
4837;SDS011;2433;48.768;9.154;2022-08-25T02:24:27;2.97;;;2.70;;
4837;SDS011;2433;48.768;9.154;2022-08-25T02:26:53;5.17;;;2.77;;
4837;SDS011;2433;48.768;9.154;2022-08-25T02:29:19;3.60;;;2.53;;
4837;SDS011;2433;48.768;9.154;2022-08-25T02:31:45;2.87;;;2.53;;
4837;SDS011;2433;48.768;9.154;2022-08-25T02:34:11;4.20;;;2.80;;
4837;SDS011;2433;48.768;9.154;2022-08-25T02:36:37;2.37;;;2.17;;
4837;SDS011;2433;48.768;9.154;2022-08-25T02:39:04;3.00;;;2.50;;
4837;SDS011;2433;48.768;9.154;2022-08-25T02:41:31;3.00;;;2.70;;
4837;SDS011;2433;48.768;9.154;2022-08-25T02:44:01;3.70;;;3.10;;
4837;SDS011;2433;48.768;9.154;2022-08-25T02:46:28;3.20;;;2.37;;
4837;SDS011;2433;48.768;9.154;2022-08-25T02:48:55;2.47;;;2.27;;
4837;SDS011;2433;48.768;9.154;2022-08-25T02:51:21;3.33;;;2.80;;
4837;SDS011;2433;48.768;9.154;2022-08-25T02:53:48;2.63;;;2.30;;
4837;SDS011;2433;48.768;9.154;2022-08-25T02:56:14;3.10;;;2.70;;
4837;SDS011;2433;48.768;9.154;2022-08-25T02:58:40;3.80;;;2.93;;
4837;SDS011;2433;48.768;9.154;2022-08-25T03:01:07;3.60;;;3.23;;
4837;SDS011;2433;48.768;9.154;2022-08-25T03:03:36;2.30;;;2.10;;
4837;SDS011;2433;48.768;9.154;2022-08-25T03:06:06;3.77;;;2.70;;
4837;SDS011;2433;48.768;9.154;2022-08-25T03:08:33;2.60;;;2.23;;
4837;SDS011;2433;48.768;9.154;2022-08-25T03:10:59;3.37;;;2.90;;
4837;SDS011;2433;48.768;9.154;2022-08-25T03:13:24;2.70;;;2.50;;
4837;SDS011;2433;48.768;9.154;2022-08-25T03:15:50;2.60;;;2.40;;
4837;SDS011;2433;48.768;9.154;2022-08-25T03:18:16;4.87;;;3.00;;
4837;SDS011;2433;48.768;9.154;2022-08-25T03:20:42;4.77;;;3.37;;
4837;SDS011;2433;48.768;9.154;2022-08-25T03:23:08;4.60;;;3.03;;
4837;SDS011;2433;48.768;9.154;2022-08-25T03:25:34;4.30;;;3.00;;
4837;SDS011;2433;48.768;9.154;2022-08-25T03:28:19;3.20;;;2.10;;
4837;SDS011;2433;48.768;9.154;2022-08-25T03:30:44;3.30;;;2.57;;
4837;SDS011;2433;48.768;9.154;2022-08-25T03:33:10;3.07;;;2.77;;
4837;SDS011;2433;48.768;9.154;2022-08-25T03:35:36;4.17;;;3.27;;
4837;SDS011;2433;48.768;9.154;2022-08-25T03:38:02;3.50;;;3.20;;
4837;SDS011;2433;48.768;9.154;2022-08-25T03:40:27;3.50;;;3.00;;
4837;SDS011;2433;48.768;9.154;2022-08-25T03:42:53;3.20;;;2.90;;
4837;SDS011;2433;48.768;9.154;2022-08-25T03:45:21;3.40;;;2.13;;
4837;SDS011;2433;48.768;9.154;2022-08-25T03:47:48;4.53;;;3.20;;
4837;SDS011;2433;48.768;9.154;2022-08-25T03:50:15;3.40;;;2.53;;
4837;SDS011;2433;48.768;9.154;2022-08-25T03:52:41;3.63;;;3.17;;
4837;SDS011;2433;48.768;9.154;2022-08-25T03:55:08;4.13;;;3.40;;
4837;SDS011;2433;48.768;9.154;2022-08-25T03:57:35;3.40;;;3.10;;
4837;SDS011;2433;48.768;9.154;2022-08-25T04:00:01;3.37;;;3.07;;
4837;SDS011;2433;48.768;9.154;2022-08-25T04:02:37;3.70;;;3.00;;
4837;SDS011;2433;48.768;9.154;2022-08-25T04:05:03;3.93;;;3.20;;
4837;SDS011;2433;48.768;9.154;2022-08-25T04:07:29;3.03;;;2.67;;
4837;SDS011;2433;48.768;9.154;2022-08-25T04:09:56;2.67;;;2.43;;
4837;SDS011;2433;48.768;9.154;2022-08-25T04:12:22;4.77;;;3.30;;
4837;SDS011;2433;48.768;9.154;2022-08-25T04:14:48;3.80;;;3.00;;
4837;SDS011;2433;48.768;9.154;2022-08-25T04:17:14;4.00;;;2.97;;
4837;SDS011;2433;48.768;9.154;2022-08-25T04:19:40;2.80;;;2.53;;
4837;SDS011;2433;48.768;9.154;2022-08-25T04:22:05;3.53;;;2.73;;
4837;SDS011;2433;48.768;9.154;2022-08-25T04:24:31;3.10;;;2.60;;
4837;SDS011;2433;48.768;9.154;2022-08-25T04:26:57;3.00;;;2.80;;
4837;SDS011;2433;48.768;9.154;2022-08-25T04:29:22;3.77;;;2.63;;
4837;SDS011;2433;48.768;9.154;2022-08-25T04:31:49;3.63;;;3.27;;
4837;SDS011;2433;48.768;9.154;2022-08-25T04:34:19;4.60;;;3.07;;
4837;SDS011;2433;48.768;9.154;2022-08-25T04:36:46;3.73;;;2.93;;
4837;SDS011;2433;48.768;9.154;2022-08-25T04:39:14;3.30;;;3.00;;
4837;SDS011;2433;48.768;9.154;2022-08-25T04:41:40;9.83;;;3.90;;
4837;SDS011;2433;48.768;9.154;2022-08-25T04:44:05;3.60;;;3.07;;
4837;SDS011;2433;48.768;9.154;2022-08-25T04:46:31;3.20;;;2.90;;
4837;SDS011;2433;48.768;9.154;2022-08-25T04:48:58;5.57;;;3.17;;
4837;SDS011;2433;48.768;9.154;2022-08-25T04:51:27;4.97;;;3.33;;
4837;SDS011;2433;48.768;9.154;2022-08-25T04:53:57;3.27;;;2.70;;
4837;SDS011;2433;48.768;9.154;2022-08-25T04:56:24;4.17;;;3.27;;
4837;SDS011;2433;48.768;9.154;2022-08-25T04:58:50;3.83;;;3.33;;
4837;SDS011;2433;48.768;9.154;2022-08-25T05:01:18;3.37;;;3.07;;
4837;SDS011;2433;48.768;9.154;2022-08-25T05:03:46;3.43;;;2.87;;
4837;SDS011;2433;48.768;9.154;2022-08-25T05:06:16;5.03;;;3.03;;
4837;SDS011;2433;48.768;9.154;2022-08-25T05:08:42;3.67;;;3.17;;
4837;SDS011;2433;48.768;9.154;2022-08-25T05:11:09;4.00;;;2.70;;
4837;SDS011;2433;48.768;9.154;2022-08-25T05:13:37;7.70;;;3.63;;
4837;SDS011;2433;48.768;9.154;2022-08-25T05:16:03;3.50;;;3.07;;
4837;SDS011;2433;48.768;9.154;2022-08-25T05:18:30;3.70;;;2.97;;
4837;SDS011;2433;48.768;9.154;2022-08-25T05:21:00;4.03;;;2.93;;
4837;SDS011;2433;48.768;9.154;2022-08-25T05:23:27;4.00;;;3.53;;
4837;SDS011;2433;48.768;9.154;2022-08-25T05:25:52;4.37;;;3.30;;
4837;SDS011;2433;48.768;9.154;2022-08-25T05:28:18;6.10;;;3.17;;
4837;SDS011;2433;48.768;9.154;2022-08-25T05:30:44;4.70;;;3.57;;
4837;SDS011;2433;48.768;9.154;2022-08-25T05:33:11;4.87;;;4.30;;
4837;SDS011;2433;48.768;9.154;2022-08-25T05:35:40;7.00;;;4.83;;
4837;SDS011;2433;48.768;9.154;2022-08-25T05:38:06;5.10;;;3.63;;
4837;SDS011;2433;48.768;9.154;2022-08-25T05:40:31;4.83;;;4.40;;
4837;SDS011;2433;48.768;9.154;2022-08-25T05:42:57;5.67;;;3.97;;
4837;SDS011;2433;48.768;9.154;2022-08-25T05:45:23;7.20;;;4.20;;
4837;SDS011;2433;48.768;9.154;2022-08-25T05:47:48;5.03;;;4.10;;
4837;SDS011;2433;48.768;9.154;2022-08-25T05:50:14;4.87;;;3.60;;
4837;SDS011;2433;48.768;9.154;2022-08-25T05:52:40;5.87;;;4.33;;
4837;SDS011;2433;48.768;9.154;2022-08-25T05:55:06;6.10;;;4.40;;
4837;SDS011;2433;48.768;9.154;2022-08-25T05:57:32;5.77;;;3.70;;
4837;SDS011;2433;48.768;9.154;2022-08-25T05:59:59;4.80;;;4.10;;
4837;SDS011;2433;48.768;9.154;2022-08-25T06:02:24;5.97;;;4.23;;
4837;SDS011;2433;48.768;9.154;2022-08-25T06:05:06;5.00;;;3.83;;
4837;SDS011;2433;48.768;9.154;2022-08-25T06:07:32;7.30;;;5.10;;
4837;SDS011;2433;48.768;9.154;2022-08-25T06:10:00;5.67;;;3.60;;
4837;SDS011;2433;48.768;9.154;2022-08-25T06:12:27;6.10;;;3.67;;
4837;SDS011;2433;48.768;9.154;2022-08-25T06:14:54;5.77;;;4.40;;
4837;SDS011;2433;48.768;9.154;2022-08-25T06:17:20;4.73;;;4.27;;
4837;SDS011;2433;48.768;9.154;2022-08-25T06:19:46;6.10;;;4.00;;
4837;SDS011;2433;48.768;9.154;2022-08-25T06:22:12;4.30;;;3.60;;
4837;SDS011;2433;48.768;9.154;2022-08-25T06:24:38;6.10;;;5.27;;
4837;SDS011;2433;48.768;9.154;2022-08-25T06:27:03;5.07;;;4.03;;
4837;SDS011;2433;48.768;9.154;2022-08-25T06:29:29;4.37;;;3.97;;
4837;SDS011;2433;48.768;9.154;2022-08-25T06:31:54;4.30;;;3.90;;
4837;SDS011;2433;48.768;9.154;2022-08-25T06:34:20;10.80;;;5.00;;
4837;SDS011;2433;48.768;9.154;2022-08-25T06:36:45;5.80;;;4.00;;
4837;SDS011;2433;48.768;9.154;2022-08-25T06:39:11;7.10;;;4.57;;
4837;SDS011;2433;48.768;9.154;2022-08-25T06:41:37;6.47;;;5.23;;
4837;SDS011;2433;48.768;9.154;2022-08-25T06:44:03;7.97;;;5.13;;
4837;SDS011;2433;48.768;9.154;2022-08-25T06:46:29;7.70;;;4.80;;
4837;SDS011;2433;48.768;9.154;2022-08-25T06:48:55;6.20;;;5.03;;
4837;SDS011;2433;48.768;9.154;2022-08-25T06:51:22;6.73;;;4.67;;
4837;SDS011;2433;48.768;9.154;2022-08-25T06:53:49;5.93;;;4.50;;
4837;SDS011;2433;48.768;9.154;2022-08-25T06:56:16;4.53;;;4.10;;
4837;SDS011;2433;48.768;9.154;2022-08-25T06:58:43;6.53;;;5.00;;
4837;SDS011;2433;48.768;9.154;2022-08-25T07:01:10;6.60;;;5.33;;
4837;SDS011;2433;48.768;9.154;2022-08-25T07:03:37;6.67;;;4.90;;
4837;SDS011;2433;48.768;9.154;2022-08-25T07:06:03;4.90;;;4.20;;
4837;SDS011;2433;48.768;9.154;2022-08-25T07:08:29;6.10;;;4.30;;
4837;SDS011;2433;48.768;9.154;2022-08-25T07:10:56;7.47;;;4.47;;
4837;SDS011;2433;48.768;9.154;2022-08-25T07:13:22;7.27;;;5.33;;
4837;SDS011;2433;48.768;9.154;2022-08-25T07:15:52;6.60;;;4.70;;
4837;SDS011;2433;48.768;9.154;2022-08-25T07:18:18;5.90;;;4.90;;
4837;SDS011;2433;48.768;9.154;2022-08-25T07:20:44;6.40;;;4.83;;
4837;SDS011;2433;48.768;9.154;2022-08-25T07:23:09;6.40;;;4.50;;
4837;SDS011;2433;48.768;9.154;2022-08-25T07:25:35;6.60;;;4.57;;
4837;SDS011;2433;48.768;9.154;2022-08-25T07:28:01;7.00;;;4.50;;
4837;SDS011;2433;48.768;9.154;2022-08-25T07:30:28;5.67;;;4.20;;
4837;SDS011;2433;48.768;9.154;2022-08-25T07:32:54;5.20;;;4.27;;
4837;SDS011;2433;48.768;9.154;2022-08-25T07:35:19;6.20;;;4.57;;
4837;SDS011;2433;48.768;9.154;2022-08-25T07:37:51;6.90;;;4.57;;
4837;SDS011;2433;48.768;9.154;2022-08-25T07:40:27;6.17;;;4.47;;
4837;SDS011;2433;48.768;9.154;2022-08-25T07:42:55;5.53;;;5.03;;
4837;SDS011;2433;48.768;9.154;2022-08-25T07:45:23;4.33;;;3.93;;
4837;SDS011;2433;48.768;9.154;2022-08-25T07:47:55;6.57;;;5.30;;
4837;SDS011;2433;48.768;9.154;2022-08-25T07:50:31;7.60;;;4.80;;
4837;SDS011;2433;48.768;9.154;2022-08-25T07:52:57;6.03;;;4.80;;
4837;SDS011;2433;48.768;9.154;2022-08-25T07:55:24;7.20;;;5.07;;
4837;SDS011;2433;48.768;9.154;2022-08-25T07:57:50;8.30;;;4.47;;
4837;SDS011;2433;48.768;9.154;2022-08-25T08:00:20;5.53;;;4.23;;
4837;SDS011;2433;48.768;9.154;2022-08-25T08:02:46;9.40;;;4.80;;
4837;SDS011;2433;48.768;9.154;2022-08-25T08:05:12;5.73;;;4.47;;
4837;SDS011;2433;48.768;9.154;2022-08-25T08:07:38;5.10;;;4.23;;
4837;SDS011;2433;48.768;9.154;2022-08-25T08:10:05;4.97;;;4.40;;
4837;SDS011;2433;48.768;9.154;2022-08-25T08:12:34;8.13;;;5.33;;
4837;SDS011;2433;48.768;9.154;2022-08-25T08:15:00;6.87;;;4.37;;
4837;SDS011;2433;48.768;9.154;2022-08-25T08:17:26;4.83;;;4.33;;
4837;SDS011;2433;48.768;9.154;2022-08-25T08:19:52;5.20;;;4.10;;
4837;SDS011;2433;48.768;9.154;2022-08-25T08:22:18;6.67;;;4.50;;
4837;SDS011;2433;48.768;9.154;2022-08-25T08:24:44;5.40;;;3.87;;
4837;SDS011;2433;48.768;9.154;2022-08-25T08:27:10;5.60;;;4.50;;
4837;SDS011;2433;48.768;9.154;2022-08-25T08:29:37;5.40;;;4.10;;
4837;SDS011;2433;48.768;9.154;2022-08-25T08:32:05;5.90;;;4.63;;
4837;SDS011;2433;48.768;9.154;2022-08-25T08:34:33;4.10;;;3.50;;
4837;SDS011;2433;48.768;9.154;2022-08-25T08:36:59;4.90;;;3.60;;
4837;SDS011;2433;48.768;9.154;2022-08-25T08:39:26;4.83;;;3.63;;
4837;SDS011;2433;48.768;9.154;2022-08-25T08:55:44;5.03;;;4.00;;
4837;SDS011;2433;48.768;9.154;2022-08-25T08:58:38;5.60;;;3.70;;
4837;SDS011;2433;48.768;9.154;2022-08-25T09:01:11;5.17;;;3.80;;
4837;SDS011;2433;48.768;9.154;2022-08-25T09:03:39;4.63;;;3.30;;
4837;SDS011;2433;48.768;9.154;2022-08-25T09:06:10;4.53;;;4.10;;
4837;SDS011;2433;48.768;9.154;2022-08-25T09:08:42;4.40;;;3.60;;
4837;SDS011;2433;48.768;9.154;2022-08-25T09:11:12;4.30;;;3.90;;
4837;SDS011;2433;48.768;9.154;2022-08-25T09:22:24;3.63;;;3.33;;
4837;SDS011;2433;48.768;9.154;2022-08-25T09:28:00;4.23;;;3.83;;
4837;SDS011;2433;48.768;9.154;2022-08-25T09:30:30;4.90;;;4.40;;
4837;SDS011;2433;48.768;9.154;2022-08-25T09:33:01;4.67;;;3.70;;
4837;SDS011;2433;48.768;9.154;2022-08-25T09:35:35;3.93;;;3.53;;
4837;SDS011;2433;48.768;9.154;2022-08-25T09:38:06;3.30;;;2.90;;
4837;SDS011;2433;48.768;9.154;2022-08-25T09:40:34;5.10;;;3.50;;
4837;SDS011;2433;48.768;9.154;2022-08-25T09:43:03;4.77;;;3.87;;
4837;SDS011;2433;48.768;9.154;2022-08-25T09:45:32;4.03;;;3.73;;
4837;SDS011;2433;48.768;9.154;2022-08-25T09:48:26;6.17;;;4.07;;
4837;SDS011;2433;48.768;9.154;2022-08-25T09:53:57;8.83;;;8.13;;
4837;SDS011;2433;48.768;9.154;2022-08-25T09:56:29;5.13;;;4.03;;
4837;SDS011;2433;48.768;9.154;2022-08-25T09:59:16;5.33;;;4.57;;
4837;SDS011;2433;48.768;9.154;2022-08-25T10:01:51;3.30;;;3.00;;
4837;SDS011;2433;48.768;9.154;2022-08-25T10:04:24;4.63;;;3.60;;
4837;SDS011;2433;48.768;9.154;2022-08-25T10:06:51;4.20;;;3.80;;
4837;SDS011;2433;48.768;9.154;2022-08-25T10:12:13;3.83;;;3.20;;
4837;SDS011;2433;48.768;9.154;2022-08-25T10:14:53;6.00;;;3.73;;
4837;SDS011;2433;48.768;9.154;2022-08-25T10:17:23;7.07;;;3.40;;
4837;SDS011;2433;48.768;9.154;2022-08-25T10:22:33;4.00;;;3.30;;
4837;SDS011;2433;48.768;9.154;2022-08-25T10:25:00;3.70;;;3.27;;
4837;SDS011;2433;48.768;9.154;2022-08-25T10:35:23;4.33;;;3.40;;
4837;SDS011;2433;48.768;9.154;2022-08-25T10:37:58;3.07;;;2.77;;
4837;SDS011;2433;48.768;9.154;2022-08-25T10:41:00;4.07;;;3.40;;
4837;SDS011;2433;48.768;9.154;2022-08-25T10:43:37;3.60;;;2.87;;
4837;SDS011;2433;48.768;9.154;2022-08-25T10:46:15;3.10;;;2.60;;
4837;SDS011;2433;48.768;9.154;2022-08-25T10:48:49;5.30;;;3.17;;
4837;SDS011;2433;48.768;9.154;2022-08-25T10:51:26;3.63;;;2.67;;
4837;SDS011;2433;48.768;9.154;2022-08-25T10:56:33;3.87;;;3.27;;
4837;SDS011;2433;48.768;9.154;2022-08-25T10:59:19;3.40;;;3.10;;
4837;SDS011;2433;48.768;9.154;2022-08-25T11:02:09;5.03;;;3.23;;
4837;SDS011;2433;48.768;9.154;2022-08-25T11:07:35;3.60;;;3.30;;
4837;SDS011;2433;48.768;9.154;2022-08-25T11:10:07;3.30;;;2.97;;
4837;SDS011;2433;48.768;9.154;2022-08-25T11:12:38;4.33;;;3.50;;
4837;SDS011;2433;48.768;9.154;2022-08-25T11:17:46;2.90;;;2.60;;
4837;SDS011;2433;48.768;9.154;2022-08-25T11:20:16;3.50;;;2.90;;
4837;SDS011;2433;48.768;9.154;2022-08-25T11:22:46;3.00;;;2.53;;
4837;SDS011;2433;48.768;9.154;2022-08-25T11:25:16;3.20;;;2.90;;
4837;SDS011;2433;48.768;9.154;2022-08-25T11:27:51;2.77;;;2.43;;
4837;SDS011;2433;48.768;9.154;2022-08-25T11:30:22;3.90;;;2.80;;
4837;SDS011;2433;48.768;9.154;2022-08-25T11:32:52;2.60;;;2.40;;
4837;SDS011;2433;48.768;9.154;2022-08-25T11:35:19;2.70;;;2.20;;
4837;SDS011;2433;48.768;9.154;2022-08-25T11:51:49;4.70;;;3.87;;
4837;SDS011;2433;48.768;9.154;2022-08-25T11:54:26;4.10;;;3.60;;
4837;SDS011;2433;48.768;9.154;2022-08-25T12:05:08;3.30;;;2.80;;
4837;SDS011;2433;48.768;9.154;2022-08-25T12:10:12;3.70;;;3.50;;
4837;SDS011;2433;48.768;9.154;2022-08-25T12:18:14;2.27;;;2.07;;
4837;SDS011;2433;48.768;9.154;2022-08-25T12:26:12;4.57;;;2.60;;
4837;SDS011;2433;48.768;9.154;2022-08-25T12:29:09;3.20;;;2.77;;
4837;SDS011;2433;48.768;9.154;2022-08-25T12:31:56;4.00;;;3.10;;
4837;SDS011;2433;48.768;9.154;2022-08-25T12:37:24;2.93;;;2.73;;
4837;SDS011;2433;48.768;9.154;2022-08-25T12:42:29;3.10;;;2.80;;
4837;SDS011;2433;48.768;9.154;2022-08-25T12:45:45;3.37;;;2.90;;
4837;SDS011;2433;48.768;9.154;2022-08-25T12:50:54;8.03;;;3.50;;
4837;SDS011;2433;48.768;9.154;2022-08-25T12:55:56;3.37;;;2.90;;
4837;SDS011;2433;48.768;9.154;2022-08-25T12:58:27;4.40;;;3.60;;
4837;SDS011;2433;48.768;9.154;2022-08-25T13:12:15;3.17;;;2.80;;
4837;SDS011;2433;48.768;9.154;2022-08-25T13:14:45;3.30;;;2.60;;
4837;SDS011;2433;48.768;9.154;2022-08-25T13:17:24;2.43;;;2.23;;
4837;SDS011;2433;48.768;9.154;2022-08-25T13:20:11;2.60;;;2.40;;
4837;SDS011;2433;48.768;9.154;2022-08-25T13:22:50;3.93;;;3.03;;
4837;SDS011;2433;48.768;9.154;2022-08-25T13:25:19;2.57;;;2.37;;
4837;SDS011;2433;48.768;9.154;2022-08-25T13:27:47;2.67;;;2.47;;
4837;SDS011;2433;48.768;9.154;2022-08-25T13:30:24;3.73;;;2.97;;
4837;SDS011;2433;48.768;9.154;2022-08-25T13:32:53;2.90;;;2.47;;
4837;SDS011;2433;48.768;9.154;2022-08-25T13:35:24;3.20;;;2.67;;
4837;SDS011;2433;48.768;9.154;2022-08-25T13:37:50;3.57;;;2.90;;
4837;SDS011;2433;48.768;9.154;2022-08-25T13:40:28;2.87;;;2.60;;
4837;SDS011;2433;48.768;9.154;2022-08-25T13:42:58;2.63;;;2.43;;
4837;SDS011;2433;48.768;9.154;2022-08-25T13:45:26;2.30;;;2.10;;
4837;SDS011;2433;48.768;9.154;2022-08-25T13:47:54;4.00;;;2.30;;
4837;SDS011;2433;48.768;9.154;2022-08-25T13:55:37;3.10;;;2.80;;
4837;SDS011;2433;48.768;9.154;2022-08-25T13:58:10;3.73;;;2.83;;
4837;SDS011;2433;48.768;9.154;2022-08-25T14:00:44;2.70;;;2.47;;
4837;SDS011;2433;48.768;9.154;2022-08-25T14:06:08;2.30;;;2.03;;
4837;SDS011;2433;48.768;9.154;2022-08-25T14:08:36;2.57;;;2.37;;
4837;SDS011;2433;48.768;9.154;2022-08-25T14:11:08;2.60;;;2.40;;
4837;SDS011;2433;48.768;9.154;2022-08-25T14:13:36;3.33;;;2.70;;
4837;SDS011;2433;48.768;9.154;2022-08-25T14:16:08;3.10;;;2.80;;
4837;SDS011;2433;48.768;9.154;2022-08-25T14:18:45;3.50;;;3.00;;
4837;SDS011;2433;48.768;9.154;2022-08-25T14:21:12;4.00;;;3.27;;
4837;SDS011;2433;48.768;9.154;2022-08-25T14:23:38;2.73;;;2.53;;
4837;SDS011;2433;48.768;9.154;2022-08-25T14:26:04;2.63;;;2.43;;
4837;SDS011;2433;48.768;9.154;2022-08-25T14:28:30;3.33;;;2.77;;
4837;SDS011;2433;48.768;9.154;2022-08-25T14:31:07;2.83;;;2.47;;
4837;SDS011;2433;48.768;9.154;2022-08-25T14:33:37;3.13;;;2.80;;
4837;SDS011;2433;48.768;9.154;2022-08-25T14:36:05;3.83;;;3.37;;
4837;SDS011;2433;48.768;9.154;2022-08-25T14:38:31;2.73;;;2.10;;
4837;SDS011;2433;48.768;9.154;2022-08-25T14:40:57;2.33;;;2.13;;
4837;SDS011;2433;48.768;9.154;2022-08-25T14:43:23;3.07;;;2.77;;
4837;SDS011;2433;48.768;9.154;2022-08-25T14:45:49;3.67;;;2.50;;
4837;SDS011;2433;48.768;9.154;2022-08-25T14:48:39;3.20;;;2.50;;
4837;SDS011;2433;48.768;9.154;2022-08-25T14:51:09;4.40;;;2.93;;
4837;SDS011;2433;48.768;9.154;2022-08-25T14:53:35;2.93;;;2.67;;
4837;SDS011;2433;48.768;9.154;2022-08-25T14:56:01;2.50;;;2.30;;
4837;SDS011;2433;48.768;9.154;2022-08-25T14:58:26;3.00;;;2.03;;
4837;SDS011;2433;48.768;9.154;2022-08-25T15:00:52;2.63;;;2.43;;
4837;SDS011;2433;48.768;9.154;2022-08-25T15:03:27;3.77;;;2.77;;
4837;SDS011;2433;48.768;9.154;2022-08-25T15:05:55;2.73;;;2.30;;
4837;SDS011;2433;48.768;9.154;2022-08-25T15:08:20;2.90;;;2.57;;
4837;SDS011;2433;48.768;9.154;2022-08-25T15:11:04;3.00;;;2.80;;
4837;SDS011;2433;48.768;9.154;2022-08-25T15:13:30;2.77;;;2.57;;
4837;SDS011;2433;48.768;9.154;2022-08-25T15:15:55;2.60;;;2.37;;
4837;SDS011;2433;48.768;9.154;2022-08-25T15:18:22;2.60;;;2.40;;
4837;SDS011;2433;48.768;9.154;2022-08-25T15:20:48;3.27;;;2.03;;
4837;SDS011;2433;48.768;9.154;2022-08-25T15:23:14;2.80;;;2.60;;
4837;SDS011;2433;48.768;9.154;2022-08-25T15:25:40;2.70;;;2.50;;
4837;SDS011;2433;48.768;9.154;2022-08-25T15:28:06;2.70;;;2.50;;
4837;SDS011;2433;48.768;9.154;2022-08-25T15:30:33;2.83;;;2.53;;
4837;SDS011;2433;48.768;9.154;2022-08-25T15:33:00;2.70;;;2.50;;
4837;SDS011;2433;48.768;9.154;2022-08-25T15:35:26;2.60;;;2.40;;
4837;SDS011;2433;48.768;9.154;2022-08-25T15:37:51;3.20;;;2.90;;
4837;SDS011;2433;48.768;9.154;2022-08-25T15:40:17;3.77;;;3.47;;
4837;SDS011;2433;48.768;9.154;2022-08-25T15:42:43;3.40;;;3.10;;
4837;SDS011;2433;48.768;9.154;2022-08-25T15:45:09;3.43;;;2.90;;
4837;SDS011;2433;48.768;9.154;2022-08-25T15:47:35;3.27;;;3.00;;
4837;SDS011;2433;48.768;9.154;2022-08-25T15:50:05;3.27;;;2.93;;
4837;SDS011;2433;48.768;9.154;2022-08-25T15:52:39;2.93;;;2.73;;
4837;SDS011;2433;48.768;9.154;2022-08-25T15:55:05;4.83;;;3.33;;
4837;SDS011;2433;48.768;9.154;2022-08-25T15:57:31;3.13;;;2.93;;
4837;SDS011;2433;48.768;9.154;2022-08-25T15:59:57;2.87;;;2.67;;
4837;SDS011;2433;48.768;9.154;2022-08-25T16:02:26;3.10;;;2.80;;
4837;SDS011;2433;48.768;9.154;2022-08-25T16:04:52;2.83;;;2.63;;
4837;SDS011;2433;48.768;9.154;2022-08-25T16:07:18;3.70;;;2.90;;
4837;SDS011;2433;48.768;9.154;2022-08-25T16:09:44;3.50;;;3.20;;
4837;SDS011;2433;48.768;9.154;2022-08-25T16:12:10;3.33;;;3.00;;
4837;SDS011;2433;48.768;9.154;2022-08-25T16:14:36;3.00;;;2.80;;
4837;SDS011;2433;48.768;9.154;2022-08-25T16:17:02;5.10;;;3.10;;
4837;SDS011;2433;48.768;9.154;2022-08-25T16:19:29;4.50;;;2.80;;
4837;SDS011;2433;48.768;9.154;2022-08-25T16:21:55;3.03;;;2.70;;
4837;SDS011;2433;48.768;9.154;2022-08-25T16:24:21;3.73;;;2.80;;
4837;SDS011;2433;48.768;9.154;2022-08-25T16:26:47;3.30;;;3.00;;
4837;SDS011;2433;48.768;9.154;2022-08-25T16:29:14;2.90;;;2.60;;
4837;SDS011;2433;48.768;9.154;2022-08-25T16:31:40;3.03;;;2.83;;
4837;SDS011;2433;48.768;9.154;2022-08-25T16:34:09;3.80;;;3.17;;
4837;SDS011;2433;48.768;9.154;2022-08-25T16:36:36;3.47;;;3.00;;
4837;SDS011;2433;48.768;9.154;2022-08-25T16:39:03;3.60;;;3.30;;
4837;SDS011;2433;48.768;9.154;2022-08-25T16:41:30;3.63;;;3.20;;
4837;SDS011;2433;48.768;9.154;2022-08-25T16:43:59;4.97;;;4.30;;
4837;SDS011;2433;48.768;9.154;2022-08-25T16:46:31;5.87;;;4.57;;
4837;SDS011;2433;48.768;9.154;2022-08-25T16:49:00;4.07;;;3.67;;
4837;SDS011;2433;48.768;9.154;2022-08-25T16:51:27;3.93;;;2.97;;
4837;SDS011;2433;48.768;9.154;2022-08-25T16:53:53;3.23;;;2.93;;
4837;SDS011;2433;48.768;9.154;2022-08-25T16:56:37;3.87;;;2.67;;
4837;SDS011;2433;48.768;9.154;2022-08-25T16:59:04;5.13;;;3.30;;
4837;SDS011;2433;48.768;9.154;2022-08-25T17:01:31;2.67;;;2.47;;
4837;SDS011;2433;48.768;9.154;2022-08-25T17:04:00;3.13;;;2.93;;
4837;SDS011;2433;48.768;9.154;2022-08-25T17:06:27;3.70;;;3.10;;
4837;SDS011;2433;48.768;9.154;2022-08-25T17:08:53;3.53;;;3.23;;
4837;SDS011;2433;48.768;9.154;2022-08-25T17:11:20;4.90;;;3.10;;
4837;SDS011;2433;48.768;9.154;2022-08-25T17:13:52;3.73;;;3.43;;
4837;SDS011;2433;48.768;9.154;2022-08-25T17:16:20;3.30;;;3.00;;
4837;SDS011;2433;48.768;9.154;2022-08-25T17:18:50;2.63;;;2.43;;
4837;SDS011;2433;48.768;9.154;2022-08-25T17:21:16;3.87;;;2.63;;
4837;SDS011;2433;48.768;9.154;2022-08-25T17:23:43;3.37;;;2.90;;
4837;SDS011;2433;48.768;9.154;2022-08-25T17:26:10;4.97;;;3.50;;